SBOSBO GLA / EGPF
Speedbird OnlineSpeedbird Online GLA / EGPF

Glasgow International Airport
21:14 9.2°C

Location Glasgow, United Kingdom
Latitude: 55.8718986511
Longitude: -4.43306016922
Web Airport Website | Wikipedia
Altitude 8 Meter / 26 Feet
Distance 570 KM / 354 Miles
from London.
Time Zone UTC +1 hours (Europe/London)
Codes IATA: GLA
ICAO: EGPF
Runways
RunwayLength (m)Surface
052665Asphalt
091104Asphalt
232665Asphalt
271104Asphalt
Radio
TypeDescriptionFrequency
ACCSHANWICK OCEANIC120.35
APPAPP119.1
ATISATIS129.575
GNDGND121.705
TWRGlasgow Tower118.805
Live ATC
METAR EGPF 241950Z AUTO 23005KT 9999 NCD 08/05 Q1023
TAF TAF EGPF 241654Z 2418/2518 32007KT 9999 FEW030 PROB30 2502/2506 8000 BECMG 2506/2509 26012KT TEMPO 2506/2518 BKN014 PROB30 TEMPO 2510/2512 28015G25KT 8000 -RA BKN009 TEMPO 2512/2518 26018G30KT 7000 -RA BKN008 PROB40 TEMPO 2515/2518 4000 RA
Weather As Of 24 Sep 2022 21:14
Description Scattered clouds
Wind 9 km/h from South-West (230°)
Cloud Cover 48%
Precipitation Rain: none, Snow: none
Sunrise 07:06
Sunset 19:13
Lounges British Airways Lounge (Open), Main Terminal
Rotations During the last 90 days there were
562 flights from LHR
282 flights from LCY
87 flights from LGW
4 flights from GLA
2 flights from EDI
563 flights to LHR
217 flights to LCY
86 flights to LGW
4 flights to GLA
2 flights to EDI


© 2017-2022 Speedbird Online